Time;durP1;ratioP1;P1;durP2;ratioP2;P2;SDS_P1;SDS_P2;PMS_P1;PMS_P2;Temp;Humidity;BMP_temperature;BMP_pressure;BME280_temperature;BME280_humidity;BME280_pressure;Samples;Min_cycle;Max_cycle;Signal;HPM_P1;HPM_P2
2021/06/29 00:02:00;;;;;;;121.95;80.93;;;19.00;99.90;;;;;;5050773;28;20021;-59
2021/06/29 00:04:26;;;;;;;119.80;81.65;;;19.00;99.90;;;;;;5049224;28;20056;-59
2021/06/29 00:06:52;;;;;;;122.15;81.75;;;19.10;99.90;;;;;;5050327;28;20566;-58
2021/06/29 00:09:17;;;;;;;141.90;88.40;;;19.30;99.90;;;;;;5048887;28;20120;-58
2021/06/29 00:11:44;;;;;;;147.65;89.65;;;19.40;99.90;;;;;;5050246;28;20025;-58
2021/06/29 00:14:10;;;;;;;134.07;85.70;;;19.40;99.90;;;;;;5050397;28;20028;-58
2021/06/29 00:16:35;;;;;;;125.82;85.78;;;19.30;99.90;;;;;;5050690;28;20025;-58
2021/06/29 00:19:01;;;;;;;125.15;82.43;;;19.20;99.90;;;;;;5050127;28;20111;-58
2021/06/29 00:21:27;;;;;;;136.73;85.50;;;19.20;99.90;;;;;;5050148;28;20063;-58
2021/06/29 00:23:52;;;;;;;141.07;89.60;;;19.20;99.90;;;;;;5049025;28;20025;-58
2021/06/29 00:26:18;;;;;;;156.13;94.03;;;19.40;99.90;;;;;;5050284;28;20032;-59
2021/06/29 00:28:44;;;;;;;139.40;89.15;;;19.40;99.90;;;;;;5048599;28;20068;-58
2021/06/29 00:31:10;;;;;;;138.05;89.30;;;19.10;99.90;;;;;;5048622;28;20025;-58
2021/06/29 00:33:35;;;;;;;142.20;89.85;;;19.00;99.90;;;;;;5050266;28;20333;-60
2021/06/29 00:36:01;;;;;;;146.38;91.68;;;18.90;99.90;;;;;;5050695;28;20518;-60
2021/06/29 00:38:27;;;;;;;161.60;97.70;;;18.90;99.90;;;;;;5054539;28;20032;-63
2021/06/29 00:40:52;;;;;;;153.35;95.65;;;18.90;99.90;;;;;;5053855;28;20163;-63
2021/06/29 00:43:18;;;;;;;156.32;94.35;;;18.90;99.90;;;;;;5053818;28;20036;-63
2021/06/29 00:45:45;;;;;;;160.35;98.45;;;18.80;99.90;;;;;;5053558;28;20028;-61
2021/06/29 00:48:10;;;;;;;180.68;101.60;;;18.80;99.90;;;;;;5052079;28;20029;-61
2021/06/29 00:50:38;;;;;;;181.32;101.90;;;19.00;99.90;;;;;;5053413;28;20394;-61
2021/06/29 00:53:03;;;;;;;161.32;97.82;;;19.10;99.90;;;;;;5053430;28;20502;-63
2021/06/29 00:55:29;;;;;;;175.30;100.55;;;19.00;99.90;;;;;;5052190;28;20094;-65
2021/06/29 00:57:55;;;;;;;174.18;98.95;;;18.90;99.90;;;;;;5054200;28;20363;-66
2021/06/29 01:00:21;;;;;;;175.88;102.10;;;18.90;99.90;;;;;;5053695;28;20036;-65
2021/06/29 01:02:47;;;;;;;177.60;102.10;;;19.00;99.90;;;;;;5053485;28;20061;-64
2021/06/29 01:05:13;;;;;;;172.63;99.25;;;19.00;99.90;;;;;;5054020;28;20040;-64
2021/06/29 01:07:41;;;;;;;179.57;100.88;;;19.00;99.90;;;;;;5053400;28;20056;-64
2021/06/29 01:10:08;;;;;;;175.75;100.20;;;19.00;99.90;;;;;;5051661;28;20056;-63
2021/06/29 01:12:35;;;;;;;170.52;97.47;;;19.00;99.90;;;;;;5052985;28;20027;-62
2021/06/29 01:15:01;;;;;;;161.00;94.20;;;18.90;99.90;;;;;;5053220;28;20429;-62
2021/06/29 01:17:28;;;;;;;174.15;98.65;;;18.80;99.90;;;;;;5052933;28;20021;-62
2021/06/29 01:19:54;;;;;;;166.38;96.93;;;18.80;99.90;;;;;;5053163;28;20029;-62
2021/06/29 01:22:22;;;;;;;172.52;98.90;;;18.60;99.90;;;;;;5052934;28;20025;-62
2021/06/29 01:24:53;;;;;;;184.45;101.25;;;18.60;99.90;;;;;;5052906;28;20470;-62
2021/06/29 01:32:15;;;;;;;182.63;102.82;;;18.60;99.90;;;;;;5052559;28;20017;-62
2021/06/29 01:34:41;;;;;;;206.30;107.55;;;18.60;99.90;;;;;;5052743;28;20051;-61
2021/06/29 01:37:06;;;;;;;202.82;105.70;;;18.70;99.90;;;;;;5052659;28;20025;-61
2021/06/29 01:39:32;;;;;;;198.55;106.40;;;18.70;99.90;;;;;;5051318;28;20033;-62
2021/06/29 01:41:58;;;;;;;180.00;101.45;;;18.70;99.90;;;;;;5052765;28;20119;-62
2021/06/29 01:44:27;;;;;;;175.27;101.05;;;18.70;99.90;;;;;;5052697;28;20092;-62
2021/06/29 01:46:55;;;;;;;167.10;96.57;;;18.80;99.90;;;;;;5051045;28;20021;-62
2021/06/29 01:49:25;;;;;;;151.20;91.72;;;18.80;99.90;;;;;;5052456;28;20017;-62
2021/06/29 01:51:52;;;;;;;168.85;98.43;;;18.60;99.90;;;;;;5052346;28;20029;-62
2021/06/29 01:54:18;;;;;;;173.90;99.85;;;18.50;99.90;;;;;;5052565;28;20070;-63
2021/06/29 01:56:45;;;;;;;180.65;100.80;;;18.40;99.90;;;;;;5052404;28;20053;-64
2021/06/29 01:59:13;;;;;;;185.82;101.60;;;18.50;99.90;;;;;;5052457;28;20070;-64
2021/06/29 02:01:40;;;;;;;175.55;98.60;;;18.50;99.90;;;;;;5050754;28;20039;-64
2021/06/29 02:04:06;;;;;;;187.40;99.93;;;18.40;99.90;;;;;;5052440;28;20070;-65
2021/06/29 02:06:31;;;;;;;162.55;93.72;;;18.30;99.90;;;;;;5052251;28;20044;-63
2021/06/29 02:08:57;;;;;;;153.70;90.82;;;18.20;99.90;;;;;;5050930;28;20029;-63
2021/06/29 02:11:23;;;;;;;121.93;72.45;;;18.10;99.90;;;;;;5052125;28;20017;-62
2021/06/29 02:13:48;;;;;;;83.38;49.50;;;18.10;99.90;;;;;;5052171;28;20032;-62
2021/06/29 02:16:14;;;;;;;76.95;47.17;;;17.90;99.90;;;;;;5051924;28;20048;-62
2021/06/29 02:18:40;;;;;;;68.88;43.95;;;17.90;99.90;;;;;;5051895;28;20024;-62
2021/06/29 02:21:07;;;;;;;55.03;36.33;;;17.90;99.90;;;;;;5051645;28;20089;-62
2021/06/29 02:23:33;;;;;;;44.45;29.63;;;17.80;99.90;;;;;;5051953;28;20032;-62
2021/06/29 02:25:59;;;;;;;46.53;31.02;;;17.80;99.90;;;;;;5052759;28;20029;-62
2021/06/29 02:28:25;;;;;;;36.10;25.55;;;17.80;99.90;;;;;;5051718;28;20057;-62
2021/06/29 02:30:51;;;;;;;31.80;21.23;;;17.90;99.90;;;;;;5051725;28;20032;-62
2021/06/29 02:33:17;;;;;;;24.67;16.90;;;17.90;99.90;;;;;;5053259;28;20079;-62
2021/06/29 02:35:42;;;;;;;23.45;16.17;;;17.80;99.90;;;;;;5052033;28;20026;-61
2021/06/29 02:38:08;;;;;;;24.33;17.85;;;17.80;99.90;;;;;;5051938;28;20025;-62
2021/06/29 02:40:34;;;;;;;22.08;16.35;;;17.90;99.90;;;;;;5055636;28;20025;-62
2021/06/29 02:43:01;;;;;;;18.10;10.82;;;18.00;99.90;;;;;;5058392;28;20029;-62
2021/06/29 02:45:26;;;;;;;12.93;9.80;;;17.90;99.90;;;;;;5057282;28;20074;-61
2021/06/29 02:47:53;;;;;;;12.40;8.25;;;17.90;99.90;;;;;;5055913;28;20028;-61
2021/06/29 02:50:19;;;;;;;14.23;9.38;;;17.80;99.90;;;;;;5052212;28;20025;-61
2021/06/29 02:52:45;;;;;;;9.10;7.10;;;17.80;99.90;;;;;;5051393;28;20443;-61
2021/06/29 02:55:13;;;;;;;9.23;6.88;;;17.70;99.90;;;;;;5051627;28;20074;-61
2021/06/29 02:57:40;;;;;;;11.80;6.70;;;17.70;99.90;;;;;;5051126;28;20018;-61
2021/06/29 03:00:09;;;;;;;6.57;5.32;;;17.60;99.90;;;;;;5049439;28;20036;-61
2021/06/29 03:02:35;;;;;;;6.55;5.18;;;17.60;99.90;;;;;;5049691;28;20056;-61
2021/06/29 03:05:02;;;;;;;9.32;7.30;;;17.50;99.90;;;;;;5051300;28;20055;-61
2021/06/29 03:07:27;;;;;;;12.27;7.85;;;17.60;99.90;;;;;;5051068;28;20025;-61
2021/06/29 03:09:53;;;;;;;13.27;9.13;;;17.70;99.90;;;;;;5051162;28;20025;-61
2021/06/29 03:12:19;;;;;;;11.63;8.80;;;17.90;99.90;;;;;;5050852;28;20490;-61
2021/06/29 03:14:44;;;;;;;9.98;8.20;;;17.80;99.90;;;;;;5051036;28;20143;-61
2021/06/29 03:17:10;;;;;;;13.18;8.80;;;17.80;99.90;;;;;;5050858;28;20048;-61
2021/06/29 03:19:36;;;;;;;9.98;7.32;;;17.80;99.90;;;;;;5050875;28;20025;-61
2021/06/29 03:22:04;;;;;;;11.70;8.20;;;17.60;99.90;;;;;;5049523;28;20035;-61
2021/06/29 03:24:30;;;;;;;11.02;8.48;;;17.40;99.90;;;;;;5051367;28;20075;-61
2021/06/29 03:26:56;;;;;;;14.55;9.73;;;17.50;99.90;;;;;;5052229;28;20110;-61
2021/06/29 03:29:23;;;;;;;15.13;10.23;;;17.70;99.90;;;;;;5050840;28;20051;-61
2021/06/29 03:31:49;;;;;;;15.73;10.15;;;17.70;99.90;;;;;;5052379;28;20035;-61
2021/06/29 03:34:15;;;;;;;14.27;11.25;;;17.60;99.90;;;;;;5053048;28;20421;-61
2021/06/29 03:36:42;;;;;;;14.05;11.27;;;17.70;99.90;;;;;;5051448;28;20436;-61
2021/06/29 03:39:08;;;;;;;15.13;10.85;;;17.70;99.90;;;;;;5050763;28;20055;-61
2021/06/29 03:41:34;;;;;;;14.65;10.90;;;17.60;99.90;;;;;;5050705;28;20091;-61
2021/06/29 03:44:00;;;;;;;14.95;10.15;;;17.60;99.90;;;;;;5050663;28;20496;-60
2021/06/29 03:46:26;;;;;;;11.55;9.93;;;17.60;99.90;;;;;;5050592;28;20021;-60
2021/06/29 03:48:51;;;;;;;14.13;11.10;;;17.60;99.90;;;;;;5049099;28;20033;-60
2021/06/29 03:51:17;;;;;;;15.55;11.02;;;17.60;99.90;;;;;;5050760;28;20052;-60
2021/06/29 03:53:43;;;;;;;13.60;10.80;;;17.70;99.90;;;;;;5050571;28;20021;-60
2021/06/29 03:56:24;;;;;;;11.70;9.57;;;17.80;99.90;;;;;;5050508;28;20017;-60
2021/06/29 03:58:54;;;;;;;12.13;8.18;;;17.60;99.90;;;;;;5050594;28;20055;-60
2021/06/29 04:01:20;;;;;;;13.77;8.82;;;17.50;99.90;;;;;;5050371;28;20025;-60
2021/06/29 04:03:46;;;;;;;18.77;9.30;;;17.40;99.90;;;;;;5050434;28;20029;-60
2021/06/29 04:06:11;;;;;;;12.07;8.40;;;17.30;99.90;;;;;;5050269;28;20029;-61
2021/06/29 04:08:37;;;;;;;10.50;7.65;;;17.30;99.90;;;;;;5050291;28;20064;-61
2021/06/29 04:11:03;;;;;;;5.80;5.28;;;17.30;99.90;;;;;;5050866;28;20021;-61
2021/06/29 04:13:28;;;;;;;5.40;4.40;;;17.30;99.90;;;;;;5054535;28;20477;-61
2021/06/29 04:15:54;;;;;;;4.18;2.75;;;17.20;99.90;;;;;;5054555;28;20072;-61
2021/06/29 04:18:20;;;;;;;5.40;2.40;;;17.10;99.90;;;;;;5054216;28;20100;-61
2021/06/29 04:20:46;;;;;;;3.33;1.95;;;17.10;99.90;;;;;;5054201;28;20029;-60
2021/06/29 04:23:11;;;;;;;4.38;2.20;;;17.10;99.90;;;;;;5054213;28;20070;-61
2021/06/29 04:25:37;;;;;;;3.28;1.90;;;17.10;99.90;;;;;;5054372;28;20560;-61
2021/06/29 04:28:03;;;;;;;4.55;1.92;;;17.10;99.90;;;;;;5053960;28;20509;-61
2021/06/29 04:30:29;;;;;;;2.22;1.60;;;17.10;99.90;;;;;;5053930;28;20500;-61
2021/06/29 04:32:54;;;;;;;4.95;1.90;;;17.00;99.90;;;;;;5053797;28;20013;-61
2021/06/29 04:35:20;;;;;;;4.18;1.75;;;17.00;99.90;;;;;;5053911;28;20036;-60
2021/06/29 04:37:46;;;;;;;2.97;1.63;;;17.00;99.90;;;;;;5052474;28;20486;-60
2021/06/29 04:40:12;;;;;;;2.92;1.70;;;17.10;99.90;;;;;;5053930;28;20489;-60
2021/06/29 04:42:38;;;;;;;4.47;1.98;;;17.00;99.90;;;;;;5053576;28;20031;-60
2021/06/29 04:45:04;;;;;;;3.05;2.08;;;17.00;99.90;;;;;;5052561;28;20116;-60
2021/06/29 04:47:36;;;;;;;5.82;1.90;;;17.00;99.90;;;;;;5053734;28;20105;-60
2021/06/29 04:50:03;;;;;;;3.90;1.83;;;17.00;99.90;;;;;;5052281;28;20025;-60
2021/06/29 04:52:29;;;;;;;3.40;1.77;;;17.10;99.90;;;;;;5053772;28;20462;-60
2021/06/29 04:54:54;;;;;;;5.70;1.42;;;17.10;99.90;;;;;;5053956;28;20029;-60
2021/06/29 04:57:20;;;;;;;1.83;1.40;;;17.20;99.90;;;;;;5052172;28;20028;-60
2021/06/29 04:59:45;;;;;;;7.00;1.90;;;17.20;99.90;;;;;;5053359;28;20021;-60
2021/06/29 05:02:11;;;;;;;5.50;2.08;;;17.20;99.90;;;;;;5053334;28;20067;-60
2021/06/29 05:04:36;;;;;;;7.95;2.42;;;17.30;99.90;;;;;;5053447;28;20554;-60
2021/06/29 05:07:02;;;;;;;4.82;1.85;;;17.20;99.90;;;;;;5053200;28;20036;-61
2021/06/29 05:09:28;;;;;;;8.10;2.25;;;17.20;99.90;;;;;;5053674;28;20114;-61
2021/06/29 05:11:53;;;;;;;4.90;2.40;;;17.20;99.90;;;;;;5053330;28;20032;-61
2021/06/29 05:14:19;;;;;;;8.18;2.90;;;17.20;99.90;;;;;;5053293;28;20036;-61
2021/06/29 05:16:45;;;;;;;6.55;3.00;;;17.10;99.90;;;;;;5053360;28;20021;-60
2021/06/29 05:19:10;;;;;;;6.00;2.85;;;17.20;99.90;;;;;;5053061;28;20564;-60
2021/06/29 05:21:36;;;;;;;3.92;2.90;;;17.20;99.90;;;;;;5052993;28;20108;-60
2021/06/29 05:24:01;;;;;;;5.75;3.20;;;17.20;99.90;;;;;;5052849;28;20393;-60
2021/06/29 05:26:27;;;;;;;7.50;4.20;;;17.20;99.90;;;;;;5053190;28;20025;-60
2021/06/29 05:28:53;;;;;;;7.00;4.18;;;17.10;99.90;;;;;;5052516;28;20555;-60
2021/06/29 05:31:18;;;;;;;7.00;4.10;;;17.20;99.90;;;;;;5052639;28;20044;-60
2021/06/29 05:33:44;;;;;;;10.43;5.28;;;17.20;99.90;;;;;;5052713;28;20032;-60
2021/06/29 05:36:09;;;;;;;8.85;5.82;;;17.30;99.90;;;;;;5052710;28;20705;-60
2021/06/29 05:38:35;;;;;;;10.13;6.22;;;17.20;99.90;;;;;;5052578;28;20363;-60
2021/06/29 05:41:01;;;;;;;14.32;6.68;;;17.20;99.90;;;;;;5053021;28;20021;-60
2021/06/29 05:43:27;;;;;;;10.88;6.72;;;17.30;99.90;;;;;;5051470;28;20025;-60
2021/06/29 05:45:52;;;;;;;12.88;7.60;;;17.30;99.90;;;;;;5052604;28;20017;-60
2021/06/29 05:48:18;;;;;;;14.82;7.13;;;17.40;99.90;;;;;;5044742;28;20067;-60
2021/06/29 05:50:45;;;;;;;16.35;7.03;;;17.40;99.90;;;;;;5051258;28;20027;-60
2021/06/29 05:53:11;;;;;;;10.88;6.53;;;17.40;99.90;;;;;;5049922;28;20382;-60
2021/06/29 05:55:37;;;;;;;18.75;7.80;;;17.40;99.90;;;;;;5052382;28;20021;-60
2021/06/29 05:58:03;;;;;;;11.98;7.35;;;17.30;99.90;;;;;;5049613;28;20031;-60
2021/06/29 06:00:28;;;;;;;12.00;7.05;;;17.40;99.90;;;;;;5050980;28;20266;-60
2021/06/29 06:02:54;;;;;;;16.92;7.63;;;17.40;99.90;;;;;;5050037;28;20036;-60
2021/06/29 06:05:20;;;;;;;13.20;6.85;;;17.50;99.90;;;;;;5048442;28;20025;-60
2021/06/29 06:07:46;;;;;;;17.65;8.05;;;17.50;99.90;;;;;;5048674;28;20124;-60
2021/06/29 06:10:13;;;;;;;16.17;6.93;;;17.50;99.90;;;;;;5042485;28;20116;-60
2021/06/29 06:12:39;;;;;;;16.85;7.55;;;17.50;99.90;;;;;;5044885;28;20469;-59
2021/06/29 06:15:06;;;;;;;18.23;7.80;;;17.50;99.90;;;;;;5045799;28;20063;-60
2021/06/29 06:17:37;;;;;;;21.80;7.32;;;17.60;99.90;;;;;;5042802;28;20488;-60
2021/06/29 06:20:06;;;;;;;13.52;6.75;;;17.80;99.90;;;;;;5041667;28;20055;-60
2021/06/29 06:22:32;;;;;;;16.50;7.20;;;17.80;99.90;;;;;;5040575;28;20029;-60
2021/06/29 06:24:59;;;;;;;14.57;8.07;;;17.70;99.90;;;;;;5039306;28;20040;-59
2021/06/29 06:27:25;;;;;;;12.80;7.88;;;17.70;99.90;;;;;;5044610;28;20474;-60
2021/06/29 06:29:50;;;;;;;15.70;7.07;;;17.60;99.90;;;;;;5043268;28;20052;-59
2021/06/29 06:32:16;;;;;;;11.82;6.60;;;17.40;99.90;;;;;;5041870;28;20353;-59
2021/06/29 06:34:42;;;;;;;12.77;7.07;;;17.30;99.90;;;;;;5048130;28;20028;-59
2021/06/29 06:37:07;;;;;;;15.95;7.75;;;17.30;99.90;;;;;;5040500;28;20064;-59
2021/06/29 06:39:33;;;;;;;12.10;7.45;;;17.40;99.90;;;;;;5039715;28;20068;-60
2021/06/29 06:41:58;;;;;;;15.50;7.35;;;17.50;99.90;;;;;;5039152;28;20500;-59
2021/06/29 06:44:24;;;;;;;17.30;7.75;;;17.60;99.90;;;;;;5045041;28;20035;-59
2021/06/29 06:46:50;;;;;;;15.35;7.22;;;17.50;99.90;;;;;;5037397;28;20086;-60
2021/06/29 06:49:16;;;;;;;17.50;9.00;;;17.40;99.90;;;;;;5036107;28;20533;-60
2021/06/29 06:51:41;;;;;;;20.33;10.10;;;17.40;99.90;;;;;;5036607;28;20124;-59
2021/06/29 06:54:07;;;;;;;16.80;8.82;;;17.40;99.90;;;;;;5033748;28;20031;-59
2021/06/29 06:56:33;;;;;;;17.40;7.97;;;17.40;99.90;;;;;;5039358;28;20032;-59
2021/06/29 06:58:58;;;;;;;26.55;10.65;;;17.50;99.90;;;;;;5041150;28;20024;-59
2021/06/29 07:01:24;;;;;;;23.75;9.18;;;17.50;99.90;;;;;;5040707;28;20044;-60
2021/06/29 07:03:50;;;;;;;21.95;9.45;;;17.50;99.90;;;;;;5044203;28;20037;-60
2021/06/29 07:06:15;;;;;;;25.98;9.20;;;17.60;99.90;;;;;;5043640;28;20044;-59
2021/06/29 07:08:42;;;;;;;23.05;9.30;;;17.70;99.90;;;;;;5045974;28;20112;-59
2021/06/29 07:11:08;;;;;;;26.80;11.48;;;17.40;99.90;;;;;;5044471;28;20037;-59
2021/06/29 07:13:34;;;;;;;27.10;11.50;;;17.50;99.90;;;;;;5028989;28;20060;-59
2021/06/29 07:16:00;;;;;;;26.80;13.18;;;17.40;99.90;;;;;;5026781;28;20039;-59
2021/06/29 07:18:26;;;;;;;29.02;12.77;;;17.40;99.90;;;;;;5027880;28;20037;-59
2021/06/29 07:20:51;;;;;;;24.92;12.93;;;17.30;99.90;;;;;;5033410;28;20056;-59
2021/06/29 07:23:18;;;;;;;27.70;12.68;;;17.40;99.90;;;;;;5030442;28;20087;-59
2021/06/29 07:25:45;;;;;;;30.60;12.85;;;17.40;99.90;;;;;;5037269;28;20031;-59
2021/06/29 07:28:11;;;;;;;29.13;11.88;;;17.60;99.90;;;;;;5026462;28;20434;-59
2021/06/29 07:30:37;;;;;;;21.30;11.40;;;17.70;99.90;;;;;;5034388;28;20033;-59
2021/06/29 07:33:05;;;;;;;22.67;11.88;;;17.70;99.90;;;;;;5039574;28;21304;-59
2021/06/29 07:35:31;;;;;;;20.88;11.32;;;17.60;99.90;;;;;;5037411;28;20033;-60
2021/06/29 07:37:59;;;;;;;22.55;12.57;;;17.70;99.90;;;;;;5035708;28;20040;-60
2021/06/29 07:40:26;;;;;;;24.35;13.00;;;17.70;99.90;;;;;;5039992;28;20496;-60
2021/06/29 07:42:52;;;;;;;24.27;14.00;;;17.80;99.90;;;;;;5033853;28;20133;-60
2021/06/29 07:45:18;;;;;;;21.13;13.95;;;17.70;99.90;;;;;;5035089;28;20466;-59
2021/06/29 07:47:44;;;;;;;29.52;15.57;;;17.50;99.90;;;;;;5040728;28;20044;-59
2021/06/29 07:50:10;;;;;;;22.92;14.60;;;17.60;99.90;;;;;;5042277;28;20024;-60
2021/06/29 07:52:36;;;;;;;20.60;14.20;;;17.90;99.90;;;;;;5040133;28;20025;-59
2021/06/29 07:55:06;;;;;;;22.00;14.13;;;17.90;99.90;;;;;;5039130;28;20086;-59
2021/06/29 07:57:32;;;;;;;27.52;14.65;;;18.10;99.90;;;;;;5042536;28;20094;-59
2021/06/29 07:59:58;;;;;;;20.77;12.40;;;18.40;99.90;;;;;;5049920;28;20138;-60
2021/06/29 08:02:24;;;;;;;15.95;11.25;;;18.80;99.90;;;;;;5044863;28;20493;-59
2021/06/29 08:04:50;;;;;;;19.45;12.43;;;19.00;99.90;;;;;;5043255;28;20107;-60
2021/06/29 08:07:15;;;;;;;18.67;11.70;;;19.10;99.90;;;;;;5044667;28;20033;-60
2021/06/29 08:09:42;;;;;;;19.90;12.32;;;19.20;99.90;;;;;;5044082;28;20028;-59
2021/06/29 08:12:09;;;;;;;18.33;12.27;;;19.10;99.90;;;;;;5050456;28;20123;-59
2021/06/29 08:14:36;;;;;;;17.95;12.25;;;19.30;99.90;;;;;;5038049;28;20025;-59
2021/06/29 08:17:03;;;;;;;17.48;9.95;;;19.90;99.90;;;;;;5043715;28;20029;-60
2021/06/29 08:19:28;;;;;;;14.45;10.50;;;20.90;99.90;;;;;;5048423;28;20033;-59
2021/06/29 08:21:55;;;;;;;15.32;10.35;;;21.70;99.90;;;;;;5049365;28;20489;-57
2021/06/29 08:24:21;;;;;;;14.95;9.45;;;22.40;99.90;;;;;;5060768;28;20028;-59
2021/06/29 08:26:46;;;;;;;15.63;10.07;;;23.10;99.90;;;;;;5046800;28;20394;-59
2021/06/29 08:29:12;;;;;;;11.88;8.88;;;23.10;99.90;;;;;;5052174;28;20505;-59
2021/06/29 08:31:38;;;;;;;10.52;9.40;;;23.00;99.90;;;;;;5043699;28;20260;-59
2021/06/29 08:34:05;;;;;;;10.63;9.13;;;22.40;99.90;;;;;;5044630;28;20440;-59
2021/06/29 08:36:31;;;;;;;16.15;10.52;;;21.90;99.90;;;;;;5029174;28;20096;-58
2021/06/29 08:38:57;;;;;;;13.88;11.35;;;21.00;99.90;;;;;;5040403;28;20063;-59
2021/06/29 08:41:23;;;;;;;14.50;11.13;;;20.60;99.90;;;;;;5041356;28;20490;-58
2021/06/29 08:43:50;;;;;;;12.35;10.98;;;20.60;99.90;;;;;;5040732;28;20481;-58
2021/06/29 08:46:16;;;;;;;14.48;10.50;;;21.00;99.90;;;;;;5029942;28;20036;-58
2021/06/29 08:48:42;;;;;;;12.15;9.75;;;21.60;99.90;;;;;;5047326;28;20044;-60
2021/06/29 08:51:08;;;;;;;15.93;9.88;;;22.40;99.90;;;;;;5047113;28;20070;-59
2021/06/29 08:53:35;;;;;;;15.50;9.43;;;22.40;99.90;;;;;;5044394;28;20097;-59
2021/06/29 08:56:01;;;;;;;20.15;10.10;;;23.50;99.90;;;;;;5043879;28;20029;-59
2021/06/29 08:58:28;;;;;;;12.55;10.50;;;25.10;99.90;;;;;;5046192;28;20658;-57
2021/06/29 09:00:55;;;;;;;13.88;10.85;;;25.70;99.90;;;;;;5047513;28;20657;-57
2021/06/29 09:03:22;;;;;;;14.18;9.95;;;25.80;99.90;;;;;;5043944;28;20125;-58
2021/06/29 09:05:50;;;;;;;15.48;12.15;;;24.50;99.90;;;;;;5039933;28;20025;-57
2021/06/29 09:08:18;;;;;;;15.70;12.00;;;23.80;99.90;;;;;;5045448;28;20044;-59
2021/06/29 09:11:02;;;;;;;14.18;11.65;;;22.90;99.90;;;;;;5045140;28;20040;-59
2021/06/29 09:13:28;;;;;;;17.75;11.73;;;22.60;99.90;;;;;;5041898;28;20082;-59
2021/06/29 09:15:54;;;;;;;13.48;11.25;;;22.50;99.90;;;;;;5037650;28;20294;-60
2021/06/29 09:18:31;;;;;;;17.58;11.05;;;23.40;99.90;;;;;;5046434;28;20465;-59
2021/06/29 09:21:05;;;;;;;16.05;10.95;;;24.70;99.90;;;;;;5042259;28;20029;-59
2021/06/29 09:23:36;;;;;;;14.18;10.43;;;25.10;99.90;;;;;;5043268;28;20393;-59
2021/06/29 09:26:08;;;;;;;15.55;11.18;;;24.70;99.90;;;;;;5038751;28;20099;-59
2021/06/29 09:28:39;;;;;;;15.50;11.32;;;24.40;99.90;;;;;;5038283;28;20041;-59
2021/06/29 09:31:11;;;;;;;13.95;10.48;;;23.80;99.90;;;;;;5045011;28;20553;-59
2021/06/29 09:33:39;;;;;;;18.65;12.18;;;23.50;99.90;;;;;;5029075;28;20464;-58
2021/06/29 09:36:08;;;;;;;16.70;12.77;;;23.00;99.90;;;;;;5043142;28;20033;-59
2021/06/29 09:38:37;;;;;;;14.90;11.43;;;23.00;99.90;;;;;;5041096;28;20037;-59
2021/06/29 09:41:13;;;;;;;16.17;12.27;;;23.70;99.90;;;;;;5045364;28;20029;-60
2021/06/29 09:43:41;;;;;;;16.35;11.38;;;23.70;99.90;;;;;;5046069;28;20033;-59
2021/06/29 09:46:11;;;;;;;16.17;11.80;;;24.10;99.90;;;;;;5044956;28;20124;-59
2021/06/29 09:48:42;;;;;;;18.00;12.82;;;23.70;99.90;;;;;;5042297;28;20415;-59
2021/06/29 09:51:20;;;;;;;18.00;11.55;;;23.80;99.90;;;;;;5035262;28;20037;-59
2021/06/29 09:53:48;;;;;;;21.45;10.95;;;24.80;99.90;;;;;;5049467;28;20025;-59
2021/06/29 09:56:23;;;;;;;16.67;10.65;;;25.20;99.90;;;;;;5045247;28;20032;-59
2021/06/29 09:58:54;;;;;;;12.13;10.68;;;26.10;99.90;;;;;;5043814;28;20061;-59
2021/06/29 10:01:25;;;;;;;14.13;10.82;;;27.10;99.90;;;;;;5026141;28;20385;-59
2021/06/29 10:03:52;;;;;;;17.57;11.10;;;27.10;99.90;;;;;;5038739;28;20029;-59
2021/06/29 10:06:19;;;;;;;20.92;13.27;;;26.00;99.90;;;;;;5040805;28;20032;-59
2021/06/29 10:08:47;;;;;;;16.05;12.00;;;24.90;99.90;;;;;;5040717;28;20167;-59
2021/06/29 10:11:18;;;;;;;18.13;13.23;;;24.90;99.90;;;;;;5044493;28;20422;-59
2021/06/29 10:13:57;;;;;;;23.10;13.27;;;24.90;99.90;;;;;;5046745;28;20037;-60
2021/06/29 10:16:26;;;;;;;23.35;13.68;;;25.10;99.90;;;;;;5049445;28;20021;-59
2021/06/29 10:19:03;;;;;;;16.92;12.10;;;25.90;99.90;;;;;;5049450;28;20115;-59
2021/06/29 10:21:31;;;;;;;17.02;11.95;;;26.10;99.90;;;;;;5043989;28;20219;-59
2021/06/29 10:24:03;;;;;;;22.40;12.73;;;27.50;99.90;;;;;;5035959;28;20522;-59
2021/06/29 10:26:31;;;;;;;20.23;12.32;;;28.10;99.90;;;;;;5038733;28;20025;-58
2021/06/29 10:28:57;;;;;;;16.45;12.00;;;29.10;99.90;;;;;;5044398;28;20037;-59
2021/06/29 10:31:29;;;;;;;19.23;11.52;;;29.90;99.90;;;;;;5048441;28;20414;-59
2021/06/29 10:34:00;;;;;;;21.98;12.07;;;29.80;99.90;;;;;;5038182;28;20116;-59
2021/06/29 10:36:29;;;;;;;20.95;12.45;;;30.00;99.00;;;;;;5045772;28;20474;-59
2021/06/29 10:38:56;;;;;;;20.63;12.20;;;30.30;97.10;;;;;;5049969;28;20073;-59
2021/06/29 10:41:25;;;;;;;19.40;12.45;;;29.60;98.30;;;;;;5048194;28;20040;-59
2021/06/29 10:43:52;;;;;;;16.75;12.15;;;28.90;98.70;;;;;;5048410;28;20377;-59
2021/06/29 10:46:29;;;;;;;18.92;11.48;;;28.50;99.20;;;;;;5042553;28;20051;-59
2021/06/29 10:49:28;;;;;;;19.30;11.82;;;29.30;97.90;;;;;;5049100;28;20021;-59
2021/06/29 10:51:56;;;;;;;22.65;13.75;;;30.30;96.40;;;;;;5049384;28;20021;-59
2021/06/29 10:54:49;;;;;;;24.42;16.27;;;30.80;95.80;;;;;;5044759;28;20032;-59
2021/06/29 10:57:36;;;;;;;26.48;17.10;;;29.40;96.00;;;;;;5046397;28;20029;-59
2021/06/29 11:00:21;;;;;;;21.83;15.57;;;28.20;98.30;;;;;;5046510;28;20060;-58
2021/06/29 11:03:08;;;;;;;25.40;16.73;;;27.70;99.80;;;;;;5047871;28;20036;-59
2021/06/29 11:05:37;;;;;;;23.48;16.08;;;27.40;99.80;;;;;;5036180;28;20021;-59
2021/06/29 11:08:27;;;;;;;21.02;16.75;;;26.90;99.90;;;;;;5043121;28;20021;-59
2021/06/29 11:10:55;;;;;;;23.75;16.52;;;26.70;99.90;;;;;;5041172;28;20244;-59
2021/06/29 11:13:48;;;;;;;22.17;16.60;;;26.60;99.90;;;;;;5035564;28;20085;-60
2021/06/29 11:16:14;;;;;;;26.33;17.63;;;27.00;99.90;;;;;;5037982;28;20152;-59
2021/06/29 11:18:40;;;;;;;23.92;17.23;;;27.30;99.90;;;;;;5043656;28;20052;-58
2021/06/29 11:21:08;;;;;;;22.65;17.33;;;26.90;99.90;;;;;;5040850;28;20033;-58
2021/06/29 11:23:36;;;;;;;22.17;16.48;;;26.30;99.90;;;;;;5037215;28;20830;-61
2021/06/29 11:26:13;;;;;;;21.42;14.52;;;25.90;99.90;;;;;;5039586;28;20033;-59
2021/06/29 11:28:43;;;;;;;21.25;16.63;;;25.60;99.90;;;;;;5044717;28;20066;-59
2021/06/29 11:31:19;;;;;;;22.05;17.10;;;25.30;99.90;;;;;;5025825;28;20406;-59
2021/06/29 11:33:49;;;;;;;25.90;17.08;;;25.40;99.90;;;;;;5027622;28;20105;-59
2021/06/29 11:36:28;;;;;;;22.25;16.98;;;25.40;99.90;;;;;;5028973;28;20500;-59
2021/06/29 11:39:01;;;;;;;25.00;17.70;;;25.90;99.90;;;;;;5024199;28;20477;-59
2021/06/29 11:41:33;;;;;;;23.15;16.10;;;26.10;99.90;;;;;;5023335;28;20062;-59
2021/06/29 11:44:19;;;;;;;24.25;17.83;;;25.80;99.90;;;;;;5023092;28;20033;-58
2021/06/29 11:47:04;;;;;;;27.35;18.05;;;25.30;99.90;;;;;;5022478;28;20048;-58
2021/06/29 11:49:39;;;;;;;24.77;17.52;;;25.50;99.90;;;;;;5023196;28;20394;-58
2021/06/29 11:52:14;;;;;;;24.40;17.80;;;26.20;99.90;;;;;;5025591;28;20803;-58
2021/06/29 11:54:58;;;;;;;24.20;17.90;;;26.40;99.90;;;;;;5020560;28;20292;-58
2021/06/29 11:57:31;;;;;;;22.70;17.95;;;26.20;99.90;;;;;;5020056;28;20022;-58
2021/06/29 12:00:16;;;;;;;25.17;18.67;;;26.00;99.90;;;;;;5018075;28;20033;-58
2021/06/29 12:02:42;;;;;;;26.88;18.00;;;26.60;99.90;;;;;;5022727;28;20034;-58
2021/06/29 12:05:16;;;;;;;32.72;18.45;;;27.90;99.90;;;;;;5023924;28;20034;-59
2021/06/29 12:07:56;;;;;;;26.65;19.25;;;28.10;99.90;;;;;;5031761;28;20091;-62
2021/06/29 12:10:31;;;;;;;24.08;18.15;;;28.30;99.90;;;;;;5017686;28;20037;-60
2021/06/29 12:13:01;;;;;;;36.75;18.85;;;27.70;99.90;;;;;;5022699;28;20352;-59
2021/06/29 12:15:45;;;;;;;25.20;19.55;;;27.00;99.90;;;;;;5022828;28;20048;-59
2021/06/29 12:18:12;;;;;;;23.58;18.90;;;27.00;99.90;;;;;;5015114;28;20474;-59
2021/06/29 12:20:49;;;;;;;32.42;22.52;;;26.80;99.90;;;;;;5019212;28;20037;-59
2021/06/29 12:23:35;;;;;;;33.22;22.17;;;26.70;99.90;;;;;;5023520;28;20131;-59
2021/06/29 12:26:05;;;;;;;28.80;21.38;;;26.50;99.90;;;;;;5024493;28;20092;-59
2021/06/29 12:28:39;;;;;;;31.05;22.85;;;26.20;99.90;;;;;;5021246;28;20033;-60
2021/06/29 12:31:08;;;;;;;27.02;21.95;;;26.60;99.90;;;;;;5023920;28;20033;-60
2021/06/29 12:33:35;;;;;;;28.05;21.70;;;27.50;99.90;;;;;;5030128;28;20024;-59
2021/06/29 12:36:14;;;;;;;27.92;20.77;;;28.80;99.90;;;;;;5033030;28;20025;-59
2021/06/29 12:38:44;;;;;;;30.70;22.23;;;30.00;99.00;;;;;;5028928;28;20029;-59
2021/06/29 12:41:21;;;;;;;28.10;22.15;;;30.30;97.00;;;;;;5030015;28;20113;-59